sensor_id;sensor_type;location;lat;lon;timestamp;temperature;humidity
52211;DHT22;38179;52.756;6.906;2022-11-30T00:00:05;6.30;99.90
52211;DHT22;38179;52.756;6.906;2022-11-30T00:02:31;6.30;99.90
52211;DHT22;38179;52.756;6.906;2022-11-30T00:04:57;6.40;99.90
52211;DHT22;38179;52.756;6.906;2022-11-30T00:07:23;6.30;99.90
52211;DHT22;38179;52.756;6.906;2022-11-30T00:09:49;6.30;99.90
52211;DHT22;38179;52.756;6.906;2022-11-30T00:12:15;6.30;99.90
52211;DHT22;38179;52.756;6.906;2022-11-30T00:14:41;6.30;99.90
52211;DHT22;38179;52.756;6.906;2022-11-30T00:17:07;6.30;99.90
52211;DHT22;38179;52.756;6.906;2022-11-30T00:19:33;6.30;99.90
52211;DHT22;38179;52.756;6.906;2022-11-30T00:21:59;6.30;99.90
52211;DHT22;38179;52.756;6.906;2022-11-30T00:24:25;6.30;99.90
52211;DHT22;38179;52.756;6.906;2022-11-30T00:26:50;6.30;99.90
52211;DHT22;38179;52.756;6.906;2022-11-30T00:29:16;6.30;99.90
52211;DHT22;38179;52.756;6.906;2022-11-30T00:31:42;6.30;99.90
52211;DHT22;38179;52.756;6.906;2022-11-30T00:34:08;6.30;99.90
52211;DHT22;38179;52.756;6.906;2022-11-30T00:36:34;6.30;99.90
52211;DHT22;38179;52.756;6.906;2022-11-30T00:39:00;6.30;99.90
52211;DHT22;38179;52.756;6.906;2022-11-30T00:41:26;6.40;99.90
52211;DHT22;38179;52.756;6.906;2022-11-30T00:43:52;6.30;99.90
52211;DHT22;38179;52.756;6.906;2022-11-30T00:46:18;6.40;99.90
52211;DHT22;38179;52.756;6.906;2022-11-30T00:48:44;6.40;99.90
52211;DHT22;38179;52.756;6.906;2022-11-30T00:51:10;6.40;99.90
52211;DHT22;38179;52.756;6.906;2022-11-30T00:53:37;6.40;99.90
52211;DHT22;38179;52.756;6.906;2022-11-30T00:56:04;6.40;99.90
52211;DHT22;38179;52.756;6.906;2022-11-30T00:58:30;6.40;99.90
52211;DHT22;38179;52.756;6.906;2022-11-30T01:00:56;6.40;99.90
52211;DHT22;38179;52.756;6.906;2022-11-30T01:03:21;6.40;99.90
52211;DHT22;38179;52.756;6.906;2022-11-30T01:05:47;6.40;99.90
52211;DHT22;38179;52.756;6.906;2022-11-30T01:08:13;6.40;99.90
52211;DHT22;38179;52.756;6.906;2022-11-30T01:10:41;6.40;99.90
52211;DHT22;38179;52.756;6.906;2022-11-30T01:13:08;6.40;99.90
52211;DHT22;38179;52.756;6.906;2022-11-30T01:15:39;6.40;99.90
52211;DHT22;38179;52.756;6.906;2022-11-30T01:18:05;6.40;99.90
52211;DHT22;38179;52.756;6.906;2022-11-30T01:20:31;6.40;99.90
52211;DHT22;38179;52.756;6.906;2022-11-30T01:22:57;6.40;99.90
52211;DHT22;38179;52.756;6.906;2022-11-30T01:25:23;6.40;99.90
52211;DHT22;38179;52.756;6.906;2022-11-30T01:27:49;6.40;99.90
52211;DHT22;38179;52.756;6.906;2022-11-30T01:30:16;6.40;99.90
52211;DHT22;38179;52.756;6.906;2022-11-30T01:32:42;6.40;99.90
52211;DHT22;38179;52.756;6.906;2022-11-30T01:35:09;6.40;99.90
52211;DHT22;38179;52.756;6.906;2022-11-30T01:37:35;6.40;99.90
52211;DHT22;38179;52.756;6.906;2022-11-30T01:40:01;6.40;99.90
52211;DHT22;38179;52.756;6.906;2022-11-30T01:42:27;6.40;99.90
52211;DHT22;38179;52.756;6.906;2022-11-30T01:44:58;6.40;99.90
52211;DHT22;38179;52.756;6.906;2022-11-30T01:47:32;6.40;99.90
52211;DHT22;38179;52.756;6.906;2022-11-30T01:50:10;6.40;99.90
52211;DHT22;38179;52.756;6.906;2022-11-30T01:52:44;6.40;99.90
52211;DHT22;38179;52.756;6.906;2022-11-30T01:57:56;6.40;99.90
52211;DHT22;38179;52.756;6.906;2022-11-30T02:00:24;6.30;99.90
52211;DHT22;38179;52.756;6.906;2022-11-30T02:03:04;6.30;99.90
52211;DHT22;38179;52.756;6.906;2022-11-30T02:05:37;6.40;99.90
52211;DHT22;38179;52.756;6.906;2022-11-30T02:08:05;6.30;99.90
52211;DHT22;38179;52.756;6.906;2022-11-30T02:10:34;6.30;99.90
52211;DHT22;38179;52.756;6.906;2022-11-30T02:13:19;6.30;99.90
52211;DHT22;38179;52.756;6.906;2022-11-30T02:18:26;6.30;99.90
52211;DHT22;38179;52.756;6.906;2022-11-30T02:21:09;6.30;99.90
52211;DHT22;38179;52.756;6.906;2022-11-30T02:24:04;6.30;99.90
52211;DHT22;38179;52.756;6.906;2022-11-30T02:29:13;6.20;99.90
52211;DHT22;38179;52.756;6.906;2022-11-30T02:32:11;6.30;99.90
52211;DHT22;38179;52.756;6.906;2022-11-30T02:34:40;6.20;99.90
52211;DHT22;38179;52.756;6.906;2022-11-30T02:37:08;6.20;99.90
52211;DHT22;38179;52.756;6.906;2022-11-30T02:39:35;6.20;99.90
52211;DHT22;38179;52.756;6.906;2022-11-30T02:42:01;6.20;99.90
52211;DHT22;38179;52.756;6.906;2022-11-30T02:44:27;6.20;99.90
52211;DHT22;38179;52.756;6.906;2022-11-30T02:50:03;6.20;99.90
52211;DHT22;38179;52.756;6.906;2022-11-30T02:52:33;6.20;99.90
52211;DHT22;38179;52.756;6.906;2022-11-30T02:55:08;6.20;99.90
52211;DHT22;38179;52.756;6.906;2022-11-30T02:57:35;6.20;99.90
52211;DHT22;38179;52.756;6.906;2022-11-30T03:00:04;6.20;99.90
52211;DHT22;38179;52.756;6.906;2022-11-30T03:02:31;6.20;99.90
52211;DHT22;38179;52.756;6.906;2022-11-30T03:04:57;6.20;99.90
52211;DHT22;38179;52.756;6.906;2022-11-30T03:07:23;6.10;99.90
52211;DHT22;38179;52.756;6.906;2022-11-30T03:09:49;6.10;99.90
52211;DHT22;38179;52.756;6.906;2022-11-30T03:12:16;6.10;99.90
52211;DHT22;38179;52.756;6.906;2022-11-30T03:14:42;6.10;99.90
52211;DHT22;38179;52.756;6.906;2022-11-30T03:17:08;6.10;99.90
52211;DHT22;38179;52.756;6.906;2022-11-30T03:19:34;6.10;99.90
52211;DHT22;38179;52.756;6.906;2022-11-30T03:22:00;6.10;99.90
52211;DHT22;38179;52.756;6.906;2022-11-30T03:24:26;6.10;99.90
52211;DHT22;38179;52.756;6.906;2022-11-30T03:26:52;6.10;99.90
52211;DHT22;38179;52.756;6.906;2022-11-30T03:29:18;6.20;99.90
52211;DHT22;38179;52.756;6.906;2022-11-30T03:31:44;6.10;99.90
52211;DHT22;38179;52.756;6.906;2022-11-30T03:34:10;6.20;99.90
52211;DHT22;38179;52.756;6.906;2022-11-30T03:36:36;6.10;99.90
52211;DHT22;38179;52.756;6.906;2022-11-30T03:39:02;6.10;99.90
52211;DHT22;38179;52.756;6.906;2022-11-30T03:41:28;6.10;99.90
52211;DHT22;38179;52.756;6.906;2022-11-30T03:43:54;6.10;99.90
52211;DHT22;38179;52.756;6.906;2022-11-30T03:46:20;6.10;99.90
52211;DHT22;38179;52.756;6.906;2022-11-30T03:48:46;6.10;99.90
52211;DHT22;38179;52.756;6.906;2022-11-30T03:51:13;6.10;99.90
52211;DHT22;38179;52.756;6.906;2022-11-30T03:53:40;6.10;99.90
52211;DHT22;38179;52.756;6.906;2022-11-30T03:56:07;6.10;99.90
52211;DHT22;38179;52.756;6.906;2022-11-30T03:58:34;6.10;99.90
52211;DHT22;38179;52.756;6.906;2022-11-30T04:01:06;6.10;99.90
52211;DHT22;38179;52.756;6.906;2022-11-30T04:03:32;6.10;99.90
52211;DHT22;38179;52.756;6.906;2022-11-30T04:05:59;6.10;99.90
52211;DHT22;38179;52.756;6.906;2022-11-30T04:08:25;6.10;99.90
52211;DHT22;38179;52.756;6.906;2022-11-30T04:10:52;6.10;99.90
52211;DHT22;38179;52.756;6.906;2022-11-30T04:13:19;6.10;99.90
52211;DHT22;38179;52.756;6.906;2022-11-30T04:15:47;6.10;99.90
52211;DHT22;38179;52.756;6.906;2022-11-30T04:18:13;6.10;99.90
52211;DHT22;38179;52.756;6.906;2022-11-30T04:20:39;6.10;99.90
52211;DHT22;38179;52.756;6.906;2022-11-30T04:23:05;6.10;99.90
52211;DHT22;38179;52.756;6.906;2022-11-30T04:25:31;6.10;99.90
52211;DHT22;38179;52.756;6.906;2022-11-30T04:27:57;6.10;99.90
52211;DHT22;38179;52.756;6.906;2022-11-30T04:30:23;6.10;99.90
52211;DHT22;38179;52.756;6.906;2022-11-30T04:32:49;6.00;99.90
52211;DHT22;38179;52.756;6.906;2022-11-30T04:35:15;6.00;99.90
52211;DHT22;38179;52.756;6.906;2022-11-30T04:37:41;6.10;99.90
52211;DHT22;38179;52.756;6.906;2022-11-30T04:40:07;6.00;99.90
52211;DHT22;38179;52.756;6.906;2022-11-30T04:42:33;6.00;99.90
52211;DHT22;38179;52.756;6.906;2022-11-30T04:44:59;6.10;99.90
52211;DHT22;38179;52.756;6.906;2022-11-30T04:47:25;6.10;99.90
52211;DHT22;38179;52.756;6.906;2022-11-30T04:49:51;6.10;99.90
52211;DHT22;38179;52.756;6.906;2022-11-30T04:52:17;6.00;99.90
52211;DHT22;38179;52.756;6.906;2022-11-30T04:54:43;6.10;99.90
52211;DHT22;38179;52.756;6.906;2022-11-30T04:57:08;6.00;99.90
52211;DHT22;38179;52.756;6.906;2022-11-30T04:59:34;6.00;99.90
52211;DHT22;38179;52.756;6.906;2022-11-30T05:02:00;6.00;99.90
52211;DHT22;38179;52.756;6.906;2022-11-30T05:04:26;6.00;99.90
52211;DHT22;38179;52.756;6.906;2022-11-30T05:06:52;6.00;99.90
52211;DHT22;38179;52.756;6.906;2022-11-30T05:09:18;6.00;99.90
52211;DHT22;38179;52.756;6.906;2022-11-30T05:11:44;6.00;99.90
52211;DHT22;38179;52.756;6.906;2022-11-30T05:14:11;6.00;99.90
52211;DHT22;38179;52.756;6.906;2022-11-30T05:16:37;6.00;99.90
52211;DHT22;38179;52.756;6.906;2022-11-30T05:19:03;5.90;99.90
52211;DHT22;38179;52.756;6.906;2022-11-30T05:21:29;6.00;99.90
52211;DHT22;38179;52.756;6.906;2022-11-30T05:23:55;5.90;99.90
52211;DHT22;38179;52.756;6.906;2022-11-30T05:26:21;6.00;99.90
52211;DHT22;38179;52.756;6.906;2022-11-30T05:28:47;5.90;99.90
52211;DHT22;38179;52.756;6.906;2022-11-30T05:31:13;5.90;99.90
52211;DHT22;38179;52.756;6.906;2022-11-30T05:33:39;5.90;99.90
52211;DHT22;38179;52.756;6.906;2022-11-30T05:36:05;5.90;99.90
52211;DHT22;38179;52.756;6.906;2022-11-30T05:38:31;5.90;99.90
52211;DHT22;38179;52.756;6.906;2022-11-30T05:41:01;5.90;99.90
52211;DHT22;38179;52.756;6.906;2022-11-30T05:43:28;5.90;99.90
52211;DHT22;38179;52.756;6.906;2022-11-30T05:46:03;5.80;99.90
52211;DHT22;38179;52.756;6.906;2022-11-30T05:48:29;5.80;99.90
52211;DHT22;38179;52.756;6.906;2022-11-30T05:51:13;5.80;99.90
52211;DHT22;38179;52.756;6.906;2022-11-30T05:53:43;5.80;99.90
52211;DHT22;38179;52.756;6.906;2022-11-30T05:56:12;5.80;99.90
52211;DHT22;38179;52.756;6.906;2022-11-30T05:58:39;5.80;99.90
52211;DHT22;38179;52.756;6.906;2022-11-30T06:01:05;5.80;99.90
52211;DHT22;38179;52.756;6.906;2022-11-30T06:03:33;5.80;99.90
52211;DHT22;38179;52.756;6.906;2022-11-30T06:05:59;5.80;99.90
52211;DHT22;38179;52.756;6.906;2022-11-30T06:08:26;5.80;99.90
52211;DHT22;38179;52.756;6.906;2022-11-30T06:10:52;5.90;99.90
52211;DHT22;38179;52.756;6.906;2022-11-30T06:13:18;5.90;99.90
52211;DHT22;38179;52.756;6.906;2022-11-30T06:15:44;5.90;99.90
52211;DHT22;38179;52.756;6.906;2022-11-30T06:18:12;5.80;99.90
52211;DHT22;38179;52.756;6.906;2022-11-30T06:20:38;5.90;99.90
52211;DHT22;38179;52.756;6.906;2022-11-30T06:23:04;5.80;99.90
52211;DHT22;38179;52.756;6.906;2022-11-30T06:25:30;5.80;99.90
52211;DHT22;38179;52.756;6.906;2022-11-30T06:27:56;5.80;99.90
52211;DHT22;38179;52.756;6.906;2022-11-30T06:30:22;5.80;99.90
52211;DHT22;38179;52.756;6.906;2022-11-30T06:32:50;5.80;99.90
52211;DHT22;38179;52.756;6.906;2022-11-30T06:35:17;5.80;99.90
52211;DHT22;38179;52.756;6.906;2022-11-30T06:37:43;5.80;99.90
52211;DHT22;38179;52.756;6.906;2022-11-30T06:40:11;5.80;99.90
52211;DHT22;38179;52.756;6.906;2022-11-30T06:42:45;5.80;99.90
52211;DHT22;38179;52.756;6.906;2022-11-30T06:45:13;5.80;99.90
52211;DHT22;38179;52.756;6.906;2022-11-30T06:47:39;5.80;99.90
52211;DHT22;38179;52.756;6.906;2022-11-30T06:50:05;5.80;99.90
52211;DHT22;38179;52.756;6.906;2022-11-30T06:52:33;5.70;99.90
52211;DHT22;38179;52.756;6.906;2022-11-30T06:54:59;5.70;99.90
52211;DHT22;38179;52.756;6.906;2022-11-30T06:57:28;5.70;99.90
52211;DHT22;38179;52.756;6.906;2022-11-30T06:59:55;5.70;99.90
52211;DHT22;38179;52.756;6.906;2022-11-30T07:02:21;5.70;99.90
52211;DHT22;38179;52.756;6.906;2022-11-30T07:04:48;5.70;99.90
52211;DHT22;38179;52.756;6.906;2022-11-30T07:07:14;5.70;99.90
52211;DHT22;38179;52.756;6.906;2022-11-30T07:09:40;5.70;99.90
52211;DHT22;38179;52.756;6.906;2022-11-30T07:12:06;5.70;99.90
52211;DHT22;38179;52.756;6.906;2022-11-30T07:14:33;5.70;99.90
52211;DHT22;38179;52.756;6.906;2022-11-30T07:16:59;5.70;99.90
52211;DHT22;38179;52.756;6.906;2022-11-30T07:19:30;5.70;99.90
52211;DHT22;38179;52.756;6.906;2022-11-30T07:21:56;5.60;99.90
52211;DHT22;38179;52.756;6.906;2022-11-30T07:24:22;5.60;99.90
52211;DHT22;38179;52.756;6.906;2022-11-30T07:27:06;5.60;99.90
52211;DHT22;38179;52.756;6.906;2022-11-30T07:29:32;5.60;99.90
52211;DHT22;38179;52.756;6.906;2022-11-30T07:31:58;5.60;99.90
52211;DHT22;38179;52.756;6.906;2022-11-30T07:34:24;5.60;99.90
52211;DHT22;38179;52.756;6.906;2022-11-30T07:36:50;5.60;99.90
52211;DHT22;38179;52.756;6.906;2022-11-30T07:39:16;5.60;99.90
52211;DHT22;38179;52.756;6.906;2022-11-30T07:41:42;5.60;99.90
52211;DHT22;38179;52.756;6.906;2022-11-30T07:44:09;5.60;99.90
52211;DHT22;38179;52.756;6.906;2022-11-30T07:46:37;5.60;99.90
52211;DHT22;38179;52.756;6.906;2022-11-30T07:49:04;5.60;99.90
52211;DHT22;38179;52.756;6.906;2022-11-30T07:51:31;5.60;99.90
52211;DHT22;38179;52.756;6.906;2022-11-30T07:53:58;5.60;99.90
52211;DHT22;38179;52.756;6.906;2022-11-30T07:56:26;5.60;99.90
52211;DHT22;38179;52.756;6.906;2022-11-30T07:58:58;5.60;99.90
52211;DHT22;38179;52.756;6.906;2022-11-30T08:01:27;5.60;99.90
52211;DHT22;38179;52.756;6.906;2022-11-30T08:03:57;5.60;99.90
52211;DHT22;38179;52.756;6.906;2022-11-30T08:06:25;5.60;99.90
52211;DHT22;38179;52.756;6.906;2022-11-30T08:08:54;5.60;99.90
52211;DHT22;38179;52.756;6.906;2022-11-30T08:11:21;5.60;99.90
52211;DHT22;38179;52.756;6.906;2022-11-30T08:13:48;5.60;99.90
52211;DHT22;38179;52.756;6.906;2022-11-30T08:16:16;5.60;99.90
52211;DHT22;38179;52.756;6.906;2022-11-30T08:18:42;5.60;99.90
52211;DHT22;38179;52.756;6.906;2022-11-30T08:21:11;5.60;99.90
52211;DHT22;38179;52.756;6.906;2022-11-30T08:23:40;5.60;99.90
52211;DHT22;38179;52.756;6.906;2022-11-30T08:28:34;5.60;99.90
52211;DHT22;38179;52.756;6.906;2022-11-30T08:31:05;5.60;99.90
52211;DHT22;38179;52.756;6.906;2022-11-30T08:33:32;5.60;99.90
52211;DHT22;38179;52.756;6.906;2022-11-30T08:36:08;5.50;99.90
52211;DHT22;38179;52.756;6.906;2022-11-30T08:38:36;5.60;99.90
52211;DHT22;38179;52.756;6.906;2022-11-30T08:41:03;5.60;99.90
52211;DHT22;38179;52.756;6.906;2022-11-30T08:43:29;5.60;99.90
52211;DHT22;38179;52.756;6.906;2022-11-30T08:45:55;5.60;99.90
52211;DHT22;38179;52.756;6.906;2022-11-30T08:48:21;5.60;99.90
52211;DHT22;38179;52.756;6.906;2022-11-30T08:50:47;5.60;99.90
52211;DHT22;38179;52.756;6.906;2022-11-30T08:53:13;5.60;99.90
52211;DHT22;38179;52.756;6.906;2022-11-30T08:55:39;5.60;99.90
52211;DHT22;38179;52.756;6.906;2022-11-30T08:58:05;5.60;99.90
52211;DHT22;38179;52.756;6.906;2022-11-30T09:00:31;5.60;99.90
52211;DHT22;38179;52.756;6.906;2022-11-30T09:03:01;5.60;99.90
52211;DHT22;38179;52.756;6.906;2022-11-30T09:05:27;5.60;99.90
52211;DHT22;38179;52.756;6.906;2022-11-30T09:07:53;5.60;99.90
52211;DHT22;38179;52.756;6.906;2022-11-30T09:10:18;5.60;99.90
52211;DHT22;38179;52.756;6.906;2022-11-30T09:12:44;5.60;99.90
52211;DHT22;38179;52.756;6.906;2022-11-30T09:15:10;5.60;99.90
52211;DHT22;38179;52.756;6.906;2022-11-30T09:17:36;5.60;99.90
52211;DHT22;38179;52.756;6.906;2022-11-30T09:20:03;5.60;99.90
52211;DHT22;38179;52.756;6.906;2022-11-30T09:22:29;5.60;99.90
52211;DHT22;38179;52.756;6.906;2022-11-30T09:24:56;5.60;99.90
52211;DHT22;38179;52.756;6.906;2022-11-30T09:27:23;5.60;99.90
52211;DHT22;38179;52.756;6.906;2022-11-30T09:29:49;5.60;99.90
52211;DHT22;38179;52.756;6.906;2022-11-30T09:32:16;5.60;99.90
52211;DHT22;38179;52.756;6.906;2022-11-30T09:34:42;5.60;99.90
52211;DHT22;38179;52.756;6.906;2022-11-30T09:37:08;5.60;99.90
52211;DHT22;38179;52.756;6.906;2022-11-30T09:39:34;5.60;99.90
52211;DHT22;38179;52.756;6.906;2022-11-30T09:45:01;5.70;99.90
52211;DHT22;38179;52.756;6.906;2022-11-30T09:47:38;5.70;99.90
52211;DHT22;38179;52.756;6.906;2022-11-30T09:50:13;5.70;99.90
52211;DHT22;38179;52.756;6.906;2022-11-30T09:52:53;5.60;99.90
52211;DHT22;38179;52.756;6.906;2022-11-30T09:55:29;5.70;99.90
52211;DHT22;38179;52.756;6.906;2022-11-30T09:58:05;5.60;99.90
52211;DHT22;38179;52.756;6.906;2022-11-30T10:00:33;5.60;99.90
52211;DHT22;38179;52.756;6.906;2022-11-30T10:03:02;5.60;99.90
52211;DHT22;38179;52.756;6.906;2022-11-30T10:11:10;5.70;99.90
52211;DHT22;38179;52.756;6.906;2022-11-30T10:16:48;5.70;99.90
52211;DHT22;38179;52.756;6.906;2022-11-30T10:22:25;5.70;99.90
52211;DHT22;38179;52.756;6.906;2022-11-30T10:27:53;5.70;99.90
52211;DHT22;38179;52.756;6.906;2022-11-30T10:30:25;5.70;99.90
52211;DHT22;38179;52.756;6.906;2022-11-30T10:32:56;5.70;99.90
52211;DHT22;38179;52.756;6.906;2022-11-30T10:37:56;5.70;99.90
52211;DHT22;38179;52.756;6.906;2022-11-30T10:41:07;5.70;99.90
52211;DHT22;38179;52.756;6.906;2022-11-30T10:43:34;5.70;99.90
52211;DHT22;38179;52.756;6.906;2022-11-30T10:46:03;5.70;99.90
52211;DHT22;38179;52.756;6.906;2022-11-30T10:48:33;5.80;99.90
52211;DHT22;38179;52.756;6.906;2022-11-30T10:51:01;5.80;99.90
52211;DHT22;38179;52.756;6.906;2022-11-30T10:53:31;5.80;99.90
52211;DHT22;38179;52.756;6.906;2022-11-30T10:56:05;5.80;99.90
52211;DHT22;38179;52.756;6.906;2022-11-30T11:01:36;5.80;99.90
52211;DHT22;38179;52.756;6.906;2022-11-30T11:04:06;5.80;99.90
52211;DHT22;38179;52.756;6.906;2022-11-30T11:06:33;5.80;99.90
52211;DHT22;38179;52.756;6.906;2022-11-30T11:09:28;5.80;99.90
52211;DHT22;38179;52.756;6.906;2022-11-30T11:12:17;5.80;99.90
52211;DHT22;38179;52.756;6.906;2022-11-30T11:14:44;5.80;99.90
52211;DHT22;38179;52.756;6.906;2022-11-30T11:17:20;5.80;99.90
52211;DHT22;38179;52.756;6.906;2022-11-30T11:19:48;5.80;99.90
52211;DHT22;38179;52.756;6.906;2022-11-30T11:22:26;5.80;99.90
52211;DHT22;38179;52.756;6.906;2022-11-30T11:25:19;5.80;99.90
52211;DHT22;38179;52.756;6.906;2022-11-30T11:28:18;5.80;99.90
52211;DHT22;38179;52.756;6.906;2022-11-30T11:30:46;5.80;99.90
52211;DHT22;38179;52.756;6.906;2022-11-30T11:35:45;5.80;99.90
52211;DHT22;38179;52.756;6.906;2022-11-30T11:38:22;5.80;99.90
52211;DHT22;38179;52.756;6.906;2022-11-30T11:40:55;5.80;99.90
52211;DHT22;38179;52.756;6.906;2022-11-30T11:43:27;5.80;99.90
52211;DHT22;38179;52.756;6.906;2022-11-30T11:45:59;5.80;99.90
52211;DHT22;38179;52.756;6.906;2022-11-30T11:48:34;5.80;99.90
52211;DHT22;38179;52.756;6.906;2022-11-30T11:51:03;5.80;99.90
52211;DHT22;38179;52.756;6.906;2022-11-30T11:53:51;5.80;99.90
52211;DHT22;38179;52.756;6.906;2022-11-30T11:56:27;5.80;99.90
52211;DHT22;38179;52.756;6.906;2022-11-30T11:59:01;5.90;99.90
52211;DHT22;38179;52.756;6.906;2022-11-30T12:01:49;5.90;99.90
52211;DHT22;38179;52.756;6.906;2022-11-30T12:07:01;5.90;99.90
52211;DHT22;38179;52.756;6.906;2022-11-30T12:09:58;5.90;99.90
52211;DHT22;38179;52.756;6.906;2022-11-30T12:12:26;5.90;99.90
52211;DHT22;38179;52.756;6.906;2022-11-30T12:14:54;5.90;99.90
52211;DHT22;38179;52.756;6.906;2022-11-30T12:17:50;5.90;99.90
52211;DHT22;38179;52.756;6.906;2022-11-30T12:20:51;5.90;99.90
52211;DHT22;38179;52.756;6.906;2022-11-30T12:26:12;5.90;99.90
52211;DHT22;38179;52.756;6.906;2022-11-30T12:32:22;5.90;99.90
52211;DHT22;38179;52.756;6.906;2022-11-30T12:42:48;5.90;99.90
52211;DHT22;38179;52.756;6.906;2022-11-30T12:45:36;5.90;99.90
52211;DHT22;38179;52.756;6.906;2022-11-30T12:53:28;5.90;99.90
52211;DHT22;38179;52.756;6.906;2022-11-30T13:04:45;5.80;99.90
52211;DHT22;38179;52.756;6.906;2022-11-30T13:10:27;5.90;99.90
52211;DHT22;38179;52.756;6.906;2022-11-30T13:12:55;5.90;99.90
52211;DHT22;38179;52.756;6.906;2022-11-30T13:15:26;5.90;99.90
52211;DHT22;38179;52.756;6.906;2022-11-30T13:17:53;5.90;99.90
52211;DHT22;38179;52.756;6.906;2022-11-30T13:24:14;5.90;99.90
52211;DHT22;38179;52.756;6.906;2022-11-30T13:27:22;5.90;99.90
52211;DHT22;38179;52.756;6.906;2022-11-30T13:32:34;5.90;99.90
52211;DHT22;38179;52.756;6.906;2022-11-30T13:38:22;5.90;99.90
52211;DHT22;38179;52.756;6.906;2022-11-30T13:41:07;5.90;99.90
52211;DHT22;38179;52.756;6.906;2022-11-30T13:43:45;5.90;99.90
52211;DHT22;38179;52.756;6.906;2022-11-30T13:46:19;5.80;99.90
52211;DHT22;38179;52.756;6.906;2022-11-30T13:48:47;5.80;99.90
52211;DHT22;38179;52.756;6.906;2022-11-30T13:51:37;5.80;99.90
52211;DHT22;38179;52.756;6.906;2022-11-30T13:59:57;5.80;99.90
52211;DHT22;38179;52.756;6.906;2022-11-30T14:05:48;5.80;99.90
52211;DHT22;38179;52.756;6.906;2022-11-30T14:10:49;5.80;99.90
52211;DHT22;38179;52.756;6.906;2022-11-30T14:18:19;5.80;99.90
52211;DHT22;38179;52.756;6.906;2022-11-30T14:21:02;5.80;99.90
52211;DHT22;38179;52.756;6.906;2022-11-30T14:26:10;5.80;99.90
52211;DHT22;38179;52.756;6.906;2022-11-30T14:28:41;5.70;99.90
52211;DHT22;38179;52.756;6.906;2022-11-30T14:31:13;5.70;99.90
52211;DHT22;38179;52.756;6.906;2022-11-30T14:33:48;5.70;99.90
52211;DHT22;38179;52.756;6.906;2022-11-30T14:36:15;5.70;99.90
52211;DHT22;38179;52.756;6.906;2022-11-30T14:38:42;5.70;99.90
52211;DHT22;38179;52.756;6.906;2022-11-30T14:41:27;5.70;99.90
52211;DHT22;38179;52.756;6.906;2022-11-30T14:44:01;5.70;99.90
52211;DHT22;38179;52.756;6.906;2022-11-30T14:46:29;5.70;99.90
52211;DHT22;38179;52.756;6.906;2022-11-30T14:49:08;5.70;99.90
52211;DHT22;38179;52.756;6.906;2022-11-30T14:51:37;5.70;99.90
52211;DHT22;38179;52.756;6.906;2022-11-30T14:57:07;5.70;99.90
52211;DHT22;38179;52.756;6.906;2022-11-30T15:02:13;5.70;99.90
52211;DHT22;38179;52.756;6.906;2022-11-30T15:04:42;5.70;99.90
52211;DHT22;38179;52.756;6.906;2022-11-30T15:07:13;5.70;99.90
52211;DHT22;38179;52.756;6.906;2022-11-30T15:09:42;5.70;99.90
52211;DHT22;38179;52.756;6.906;2022-11-30T15:12:09;5.70;99.90
52211;DHT22;38179;52.756;6.906;2022-11-30T15:14:35;5.60;99.90
52211;DHT22;38179;52.756;6.906;2022-11-30T15:17:01;5.60;99.90
52211;DHT22;38179;52.756;6.906;2022-11-30T15:19:30;5.60;99.90
52211;DHT22;38179;52.756;6.906;2022-11-30T15:21:57;5.60;99.90
52211;DHT22;38179;52.756;6.906;2022-11-30T15:24:24;5.60;99.90
52211;DHT22;38179;52.756;6.906;2022-11-30T15:29:35;5.60;99.90
52211;DHT22;38179;52.756;6.906;2022-11-30T15:32:05;5.60;99.90
52211;DHT22;38179;52.756;6.906;2022-11-30T15:34:43;5.60;99.90
52211;DHT22;38179;52.756;6.906;2022-11-30T15:37:11;5.60;99.90
52211;DHT22;38179;52.756;6.906;2022-11-30T15:39:38;5.60;99.90
52211;DHT22;38179;52.756;6.906;2022-11-30T15:42:06;5.60;99.90
52211;DHT22;38179;52.756;6.906;2022-11-30T15:47:05;5.50;99.90
52211;DHT22;38179;52.756;6.906;2022-11-30T15:49:33;5.50;99.90
52211;DHT22;38179;52.756;6.906;2022-11-30T15:57:20;5.50;99.90
52211;DHT22;38179;52.756;6.906;2022-11-30T16:00:22;5.50;99.90
52211;DHT22;38179;52.756;6.906;2022-11-30T16:02:48;5.50;99.90
52211;DHT22;38179;52.756;6.906;2022-11-30T16:07:53;5.50;99.90
52211;DHT22;38179;52.756;6.906;2022-11-30T16:10:26;5.50;99.90
52211;DHT22;38179;52.756;6.906;2022-11-30T16:12:54;5.50;99.90
52211;DHT22;38179;52.756;6.906;2022-11-30T16:15:29;5.50;99.90
52211;DHT22;38179;52.756;6.906;2022-11-30T16:17:59;5.50;99.90
52211;DHT22;38179;52.756;6.906;2022-11-30T16:20:27;5.50;99.90
52211;DHT22;38179;52.756;6.906;2022-11-30T16:22:53;5.50;99.90
52211;DHT22;38179;52.756;6.906;2022-11-30T16:25:23;5.50;99.90
52211;DHT22;38179;52.756;6.906;2022-11-30T16:27:50;5.50;99.90
52211;DHT22;38179;52.756;6.906;2022-11-30T16:30:21;5.50;99.90
52211;DHT22;38179;52.756;6.906;2022-11-30T16:32:48;5.50;99.90
52211;DHT22;38179;52.756;6.906;2022-11-30T16:37:40;5.50;99.90
52211;DHT22;38179;52.756;6.906;2022-11-30T16:40:07;5.50;99.90
52211;DHT22;38179;52.756;6.906;2022-11-30T16:42:33;5.50;99.90
52211;DHT22;38179;52.756;6.906;2022-11-30T16:44:59;5.50;99.90
52211;DHT22;38179;52.756;6.906;2022-11-30T16:47:25;5.50;99.90
52211;DHT22;38179;52.756;6.906;2022-11-30T16:49:51;5.50;99.90
52211;DHT22;38179;52.756;6.906;2022-11-30T16:52:17;5.50;99.90
52211;DHT22;38179;52.756;6.906;2022-11-30T16:54:43;5.50;99.90
52211;DHT22;38179;52.756;6.906;2022-11-30T16:57:09;5.50;99.90
52211;DHT22;38179;52.756;6.906;2022-11-30T16:59:36;5.50;99.90
52211;DHT22;38179;52.756;6.906;2022-11-30T17:02:02;5.50;99.90
52211;DHT22;38179;52.756;6.906;2022-11-30T17:04:28;5.50;99.90
52211;DHT22;38179;52.756;6.906;2022-11-30T17:06:55;5.50;99.90
52211;DHT22;38179;52.756;6.906;2022-11-30T17:09:22;5.50;99.90
52211;DHT22;38179;52.756;6.906;2022-11-30T17:11:49;5.50;99.90
52211;DHT22;38179;52.756;6.906;2022-11-30T17:14:16;5.50;99.90
52211;DHT22;38179;52.756;6.906;2022-11-30T17:16:43;5.50;99.90
52211;DHT22;38179;52.756;6.906;2022-11-30T17:19:09;5.50;99.90
52211;DHT22;38179;52.756;6.906;2022-11-30T17:21:37;5.50;99.90
52211;DHT22;38179;52.756;6.906;2022-11-30T17:24:04;5.50;99.90
52211;DHT22;38179;52.756;6.906;2022-11-30T17:26:31;5.50;99.90
52211;DHT22;38179;52.756;6.906;2022-11-30T17:28:57;5.50;99.90
52211;DHT22;38179;52.756;6.906;2022-11-30T17:31:23;5.50;99.90
52211;DHT22;38179;52.756;6.906;2022-11-30T17:33:49;5.50;99.90
52211;DHT22;38179;52.756;6.906;2022-11-30T17:36:16;5.50;99.90
52211;DHT22;38179;52.756;6.906;2022-11-30T17:38:43;5.50;99.90
52211;DHT22;38179;52.756;6.906;2022-11-30T17:41:14;5.50;99.90
52211;DHT22;38179;52.756;6.906;2022-11-30T17:43:41;5.50;99.90
52211;DHT22;38179;52.756;6.906;2022-11-30T17:46:12;5.50;99.90
52211;DHT22;38179;52.756;6.906;2022-11-30T17:48:40;5.50;99.90
52211;DHT22;38179;52.756;6.906;2022-11-30T17:51:06;5.50;99.90
52211;DHT22;38179;52.756;6.906;2022-11-30T17:53:33;5.40;99.90
52211;DHT22;38179;52.756;6.906;2022-11-30T17:56:10;5.50;99.90
52211;DHT22;38179;52.756;6.906;2022-11-30T17:58:38;5.40;99.90
52211;DHT22;38179;52.756;6.906;2022-11-30T18:01:05;5.40;99.90